Time;durP1;ratioP1;P1;durP2;ratioP2;P2;SDS_P1;SDS_P2;PMS_P1;PMS_P2;Temp;Humidity;BMP_temperature;BMP_pressure;BME280_temperature;BME280_humidity;BME280_pressure;Samples;Min_cycle;Max_cycle;Signal;HPM_P1;HPM_P2
2022/12/24 00:02:12;;;;;;;11.13;5.50;;;2.80;99.90;;;;;;5077295;28;20392;-70
2022/12/24 00:04:37;;;;;;;14.10;5.63;;;2.80;99.90;;;;;;5076190;28;20197;-70
2022/12/24 00:07:03;;;;;;;5.80;4.60;;;2.90;99.90;;;;;;5076861;28;20201;-70
2022/12/24 00:09:29;;;;;;;5.20;4.70;;;2.90;99.90;;;;;;5074850;28;20220;-68
2022/12/24 00:11:55;;;;;;;7.00;6.33;;;2.90;99.90;;;;;;5076040;28;20611;-70
2022/12/24 00:14:22;;;;;;;9.67;5.70;;;2.90;99.90;;;;;;5075624;28;20222;-67
2022/12/24 00:16:48;;;;;;;6.50;5.47;;;2.90;99.90;;;;;;5076469;28;20416;-67
2022/12/24 00:19:14;;;;;;;5.80;5.20;;;2.90;99.90;;;;;;5076310;28;20444;-67
2022/12/24 00:21:39;;;;;;;7.57;4.87;;;2.90;99.90;;;;;;5076247;28;20570;-70
2022/12/24 00:24:05;;;;;;;8.53;5.53;;;2.80;99.90;;;;;;5075999;28;20678;-70
2022/12/24 00:26:32;;;;;;;9.77;6.20;;;2.80;99.90;;;;;;5075816;28;20233;-70
2022/12/24 00:28:58;;;;;;;6.57;4.60;;;2.80;99.90;;;;;;5076088;28;20448;-69
2022/12/24 00:31:24;;;;;;;7.73;5.03;;;2.80;99.90;;;;;;5075890;28;20439;-69
2022/12/24 00:33:50;;;;;;;9.73;5.60;;;2.90;99.90;;;;;;5075835;28;20454;-67
2022/12/24 00:36:17;;;;;;;7.73;5.53;;;2.90;99.90;;;;;;5075240;28;20401;-70
2022/12/24 00:38:43;;;;;;;6.27;5.70;;;2.90;99.90;;;;;;5075903;28;20411;-68
2022/12/24 00:41:23;;;;;;;8.50;5.77;;;2.90;99.90;;;;;;5075890;28;20408;-70
2022/12/24 00:44:04;;;;;;;11.67;5.90;;;3.00;99.90;;;;;;5075694;28;20416;-70
2022/12/24 00:46:32;;;;;;;7.43;6.53;;;3.10;99.90;;;;;;5075445;28;20765;-70
2022/12/24 00:48:58;;;;;;;10.97;7.43;;;3.10;99.90;;;;;;5075562;28;20413;-67
2022/12/24 00:51:24;;;;;;;7.97;6.10;;;3.20;99.90;;;;;;5075786;28;20492;-68
2022/12/24 00:53:51;;;;;;;7.90;6.00;;;3.20;99.90;;;;;;5075794;28;20523;-67
2022/12/24 00:56:17;;;;;;;11.00;6.90;;;3.20;99.90;;;;;;5074937;28;20405;-68
2022/12/24 00:58:42;;;;;;;30.23;7.50;;;3.20;99.90;;;;;;5075636;28;20535;-71
2022/12/24 01:01:09;;;;;;;8.10;6.70;;;3.20;99.90;;;;;;5075610;28;20479;-67
2022/12/24 01:03:34;;;;;;;8.13;6.67;;;3.20;99.90;;;;;;5075355;28;20170;-70
2022/12/24 01:06:01;;;;;;;20.20;6.60;;;3.20;99.90;;;;;;5074341;28;20428;-67
2022/12/24 01:08:27;;;;;;;9.43;6.37;;;3.30;99.90;;;;;;5075143;28;20199;-70
2022/12/24 01:10:53;;;;;;;10.00;6.77;;;3.30;99.90;;;;;;5075382;28;20494;-70
2022/12/24 01:13:19;;;;;;;13.67;8.07;;;3.30;99.90;;;;;;5075322;28;20174;-67
2022/12/24 01:15:44;;;;;;;15.27;8.17;;;3.30;99.90;;;;;;5074450;28;20435;-68
2022/12/24 01:18:10;;;;;;;9.40;6.70;;;3.30;99.90;;;;;;5075243;28;20244;-68
2022/12/24 01:20:36;;;;;;;8.00;7.20;;;3.30;99.90;;;;;;5075282;28;20645;-72
2022/12/24 01:23:01;;;;;;;9.83;7.10;;;3.20;99.90;;;;;;5074871;28;20220;-70
2022/12/24 01:25:27;;;;;;;11.40;7.57;;;3.30;99.90;;;;;;5074416;28;20190;-70
2022/12/24 01:27:53;;;;;;;10.53;6.43;;;3.10;99.90;;;;;;5075034;28;20573;-69
2022/12/24 01:30:18;;;;;;;10.47;6.60;;;3.10;99.90;;;;;;5075004;28;20225;-68
2022/12/24 01:32:44;;;;;;;13.33;6.93;;;3.10;99.90;;;;;;5074963;28;20281;-68
2022/12/24 01:35:11;;;;;;;10.13;7.03;;;2.90;99.90;;;;;;5074280;28;20206;-71
2022/12/24 01:37:37;;;;;;;7.93;6.37;;;2.90;99.90;;;;;;5074884;28;20186;-70
2022/12/24 01:45:44;;;;;;;7.63;5.70;;;2.70;99.90;;;;;;5074135;28;20466;-67
2022/12/24 01:48:28;;;;;;;13.17;8.07;;;2.70;99.90;;;;;;5056574;28;20427;-67
2022/12/24 01:51:01;;;;;;;11.87;6.70;;;2.80;99.90;;;;;;5074627;28;20788;-70
2022/12/24 01:53:29;;;;;;;7.87;5.87;;;2.70;99.90;;;;;;5074594;28;20412;-70
2022/12/24 01:55:55;;;;;;;7.53;6.50;;;2.70;99.90;;;;;;5073717;28;20436;-68
2022/12/24 01:58:23;;;;;;;11.37;6.30;;;2.60;99.90;;;;;;5074295;28;20410;-70
2022/12/24 02:00:48;;;;;;;10.03;7.30;;;2.50;99.90;;;;;;5074194;28;20408;-68
2022/12/24 02:03:14;;;;;;;7.03;5.87;;;2.50;99.90;;;;;;5074472;28;20770;-67
2022/12/24 02:05:49;;;;;;;11.77;6.30;;;2.50;99.90;;;;;;5073510;28;20520;-71
2022/12/24 02:08:16;;;;;;;6.23;5.27;;;2.40;99.90;;;;;;5056077;28;20917;-67
2022/12/24 02:10:43;;;;;;;7.40;5.83;;;2.30;99.90;;;;;;5074234;28;20908;-68
2022/12/24 02:13:09;;;;;;;7.10;6.10;;;2.40;99.90;;;;;;5074293;28;20439;-67
2022/12/24 02:15:58;;;;;;;9.00;6.43;;;2.30;99.90;;;;;;5073015;28;20513;-70
2022/12/24 02:18:30;;;;;;;7.80;5.77;;;2.30;99.90;;;;;;5062533;28;20428;-67
2022/12/24 02:21:29;;;;;;;9.33;6.10;;;2.40;99.90;;;;;;5073949;28;20507;-70
2022/12/24 02:24:20;;;;;;;6.77;5.50;;;2.50;99.90;;;;;;5056118;28;21044;-67
2022/12/24 02:27:21;;;;;;;9.93;6.37;;;2.50;99.90;;;;;;5073779;28;20436;-68
2022/12/24 02:30:31;;;;;;;10.63;5.37;;;2.60;99.90;;;;;;5074088;28;20419;-67
2022/12/24 02:33:32;;;;;;;7.87;6.10;;;2.60;99.90;;;;;;5055784;28;20578;-67
2022/12/24 02:35:57;;;;;;;14.40;6.00;;;2.70;99.90;;;;;;5047087;28;20428;-67
2022/12/24 02:38:27;;;;;;;7.30;5.30;;;2.50;99.90;;;;;;5073569;28;20419;-68
2022/12/24 02:41:11;;;;;;;5.93;5.43;;;2.30;99.90;;;;;;5073674;28;20539;-70
2022/12/24 02:43:41;;;;;;;7.63;5.20;;;2.40;99.90;;;;;;5073521;28;20400;-70
2022/12/24 02:46:17;;;;;;;10.47;6.00;;;2.40;99.90;;;;;;5072995;28;20855;-68
2022/12/24 02:48:46;;;;;;;6.13;4.90;;;2.40;99.90;;;;;;5055578;28;20499;-68
2022/12/24 02:51:12;;;;;;;7.10;5.77;;;2.50;99.90;;;;;;5073453;28;20404;-70
2022/12/24 02:53:39;;;;;;;8.40;5.03;;;2.50;99.90;;;;;;5059522;28;20856;-70
2022/12/24 02:56:36;;;;;;;9.83;5.20;;;2.40;99.90;;;;;;5054663;28;20405;-68
2022/12/24 02:59:12;;;;;;;9.17;4.93;;;2.50;99.90;;;;;;5072820;28;20443;-67
2022/12/24 03:01:40;;;;;;;4.70;4.33;;;2.40;99.90;;;;;;5073167;28;20911;-70
2022/12/24 03:04:12;;;;;;;7.83;5.27;;;2.30;99.90;;;;;;5073066;28;20466;-68
2022/12/24 03:07:04;;;;;;;7.20;5.20;;;2.30;99.90;;;;;;5054347;28;20957;-68
2022/12/24 03:09:40;;;;;;;6.60;5.00;;;2.30;99.90;;;;;;5055152;28;20840;-68
2022/12/24 03:12:12;;;;;;;8.13;5.00;;;2.40;99.90;;;;;;5073170;28;20408;-68
2022/12/24 03:14:40;;;;;;;11.37;5.83;;;2.50;99.90;;;;;;5072289;28;20463;-68
2022/12/24 03:17:07;;;;;;;7.70;5.73;;;2.50;99.90;;;;;;5073099;28;20424;-67
2022/12/24 03:19:33;;;;;;;4.10;3.70;;;2.50;99.90;;;;;;5073013;28;20435;-70
2022/12/24 03:22:03;;;;;;;6.53;5.23;;;2.60;99.90;;;;;;5073176;28;20392;-70
2022/12/24 03:24:29;;;;;;;5.03;4.53;;;2.70;99.90;;;;;;5072370;28;20901;-70
2022/12/24 03:26:55;;;;;;;5.17;4.63;;;2.70;99.90;;;;;;5072565;28;20408;-67
2022/12/24 03:29:21;;;;;;;9.00;5.00;;;2.80;99.90;;;;;;5072989;28;20432;-69
2022/12/24 03:31:49;;;;;;;5.20;4.70;;;2.90;99.90;;;;;;5072950;28;20890;-67
2022/12/24 03:34:16;;;;;;;6.77;5.03;;;2.90;99.90;;;;;;5072599;28;20194;-70
2022/12/24 03:36:42;;;;;;;5.90;4.70;;;2.90;99.90;;;;;;5072665;28;20411;-68
2022/12/24 03:39:08;;;;;;;6.17;5.27;;;3.00;99.90;;;;;;5072844;28;20397;-70
2022/12/24 03:41:35;;;;;;;4.47;4.07;;;3.00;99.90;;;;;;5054751;28;20495;-68
2022/12/24 03:44:02;;;;;;;5.03;4.00;;;3.10;99.90;;;;;;5072605;28;20416;-69
2022/12/24 03:46:27;;;;;;;7.20;4.87;;;3.10;99.90;;;;;;5072332;28;20417;-67
2022/12/24 03:48:53;;;;;;;8.63;4.63;;;3.10;99.90;;;;;;5072777;28;20466;-70
2022/12/24 03:51:22;;;;;;;4.60;4.20;;;3.20;99.90;;;;;;5071552;28;20530;-67
2022/12/24 03:53:48;;;;;;;4.40;4.00;;;3.20;99.90;;;;;;5072641;28;20678;-67
2022/12/24 03:56:14;;;;;;;16.43;4.90;;;3.10;99.90;;;;;;5053917;28;20405;-70
2022/12/24 03:58:40;;;;;;;7.27;4.30;;;3.00;99.90;;;;;;5072456;28;20921;-70
2022/12/24 04:01:06;;;;;;;5.10;4.43;;;2.90;99.90;;;;;;5072565;28;20515;-67
2022/12/24 04:03:31;;;;;;;6.10;4.30;;;2.90;99.90;;;;;;5072535;28;20492;-69
2022/12/24 04:06:09;;;;;;;6.37;4.60;;;2.80;99.90;;;;;;5072025;28;20190;-70
2022/12/24 04:08:35;;;;;;;6.70;4.90;;;2.80;99.90;;;;;;5072740;28;20635;-70
2022/12/24 04:11:03;;;;;;;9.33;4.17;;;2.80;99.90;;;;;;5054462;28;20400;-68
2022/12/24 04:13:29;;;;;;;9.70;5.20;;;2.70;99.90;;;;;;5072423;28;20396;-68
2022/12/24 04:16:00;;;;;;;10.20;5.33;;;2.70;99.90;;;;;;5071763;28;20428;-70
2022/12/24 04:18:26;;;;;;;8.93;6.00;;;2.70;99.90;;;;;;5072489;28;20167;-67
2022/12/24 04:20:52;;;;;;;5.20;4.20;;;2.70;99.90;;;;;;5072538;28;20396;-68
2022/12/24 04:23:18;;;;;;;8.37;4.27;;;2.70;99.90;;;;;;5072492;28;20978;-70
2022/12/24 04:25:44;;;;;;;5.20;3.30;;;2.80;99.90;;;;;;5071706;28;20432;-70
2022/12/24 04:28:09;;;;;;;5.50;4.50;;;2.80;99.90;;;;;;5072262;28;20171;-68
2022/12/24 04:30:38;;;;;;;6.80;4.67;;;2.90;99.90;;;;;;5072527;28;20166;-69
2022/12/24 04:33:03;;;;;;;6.93;4.90;;;3.00;99.90;;;;;;5072319;28;20165;-69
2022/12/24 04:35:29;;;;;;;5.40;4.90;;;3.10;99.90;;;;;;5071127;28;20448;-70
2022/12/24 04:37:55;;;;;;;5.97;4.43;;;3.30;99.90;;;;;;5072322;28;20162;-67
2022/12/24 04:40:20;;;;;;;6.73;4.47;;;3.40;99.90;;;;;;5072857;28;20714;-70
2022/12/24 04:42:46;;;;;;;5.07;4.53;;;3.40;99.90;;;;;;5058282;28;20171;-71
2022/12/24 04:45:12;;;;;;;8.00;3.90;;;3.50;99.90;;;;;;5075208;28;20209;-68
2022/12/24 04:47:38;;;;;;;8.27;5.37;;;3.50;99.90;;;;;;5075711;28;20228;-68
2022/12/24 04:50:04;;;;;;;8.57;4.53;;;3.60;99.90;;;;;;5075816;28;20412;-69
2022/12/24 04:52:29;;;;;;;4.57;3.83;;;3.50;99.90;;;;;;5075533;28;20639;-69
2022/12/24 04:54:55;;;;;;;5.00;3.90;;;3.40;99.90;;;;;;5066198;28;20985;-71
2022/12/24 04:57:21;;;;;;;4.80;4.40;;;3.40;99.90;;;;;;5058074;28;20185;-70
2022/12/24 04:59:46;;;;;;;7.93;4.17;;;3.50;99.90;;;;;;5075505;28;20199;-71
2022/12/24 05:02:12;;;;;;;5.17;4.20;;;3.50;99.90;;;;;;5075606;28;20209;-68
2022/12/24 05:04:38;;;;;;;5.60;5.10;;;3.60;99.90;;;;;;5074845;28;20182;-68
2022/12/24 05:07:03;;;;;;;4.97;4.57;;;3.70;99.90;;;;;;5075370;28;20171;-67
2022/12/24 05:09:29;;;;;;;10.87;4.20;;;3.80;99.90;;;;;;5075293;28;20761;-70
2022/12/24 05:11:55;;;;;;;12.40;5.07;;;3.80;99.90;;;;;;5075149;28;20171;-68
2022/12/24 05:14:20;;;;;;;8.50;4.90;;;3.80;99.90;;;;;;5074561;28;20212;-70
2022/12/24 05:16:46;;;;;;;10.17;5.60;;;3.90;99.90;;;;;;5075283;28;20169;-68
2022/12/24 05:19:12;;;;;;;7.27;4.70;;;3.90;99.90;;;;;;5075354;28;20158;-71
2022/12/24 05:21:37;;;;;;;6.27;4.17;;;4.00;99.90;;;;;;5075096;28;20250;-71
2022/12/24 05:26:54;;;;;;;8.93;4.10;;;4.00;99.90;;;;;;5075287;28;20522;-68
2022/12/24 05:29:20;;;;;;;13.13;4.47;;;4.00;99.90;;;;;;5074743;28;20451;-67
2022/12/24 05:31:46;;;;;;;5.53;4.30;;;4.10;99.90;;;;;;5075020;28;20405;-71
2022/12/24 05:34:13;;;;;;;5.53;4.50;;;4.10;99.90;;;;;;5074687;28;21018;-70
2022/12/24 05:36:39;;;;;;;10.53;5.17;;;4.10;99.90;;;;;;5074572;28;20155;-67
2022/12/24 05:39:06;;;;;;;4.17;3.80;;;4.10;99.90;;;;;;5074851;28;20400;-67
2022/12/24 05:41:32;;;;;;;6.70;5.00;;;4.10;99.90;;;;;;5074798;28;20393;-67
2022/12/24 05:43:57;;;;;;;9.63;5.03;;;4.10;99.90;;;;;;5074696;28;20917;-67
2022/12/24 05:46:24;;;;;;;5.77;5.10;;;4.10;99.90;;;;;;5073777;28;20405;-70
2022/12/24 05:48:51;;;;;;;12.00;4.80;;;4.00;99.90;;;;;;5074754;28;20162;-70
2022/12/24 05:51:19;;;;;;;9.37;6.17;;;4.10;99.90;;;;;;5074426;28;20516;-70
2022/12/24 05:53:46;;;;;;;5.90;5.30;;;4.00;99.90;;;;;;5073587;28;20954;-68
2022/12/24 05:56:17;;;;;;;7.37;4.73;;;4.00;99.90;;;;;;5073802;28;20424;-70
2022/12/24 05:58:43;;;;;;;10.83;4.80;;;4.00;99.90;;;;;;5074798;28;20419;-69
2022/12/24 06:01:09;;;;;;;5.10;4.60;;;4.10;99.90;;;;;;5074432;28;20404;-68
2022/12/24 06:03:36;;;;;;;8.50;4.80;;;4.10;99.90;;;;;;5074310;28;20404;-70
2022/12/24 06:06:06;;;;;;;5.97;5.40;;;4.10;99.90;;;;;;5073248;28;20424;-70
2022/12/24 06:08:32;;;;;;;7.30;5.50;;;4.10;99.90;;;;;;5056660;28;20413;-68
2022/12/24 06:11:00;;;;;;;5.30;4.80;;;4.10;99.90;;;;;;5074205;28;20501;-71
2022/12/24 06:13:26;;;;;;;10.70;8.50;;;4.10;99.90;;;;;;5074111;28;20447;-71
2022/12/24 06:16:00;;;;;;;7.20;4.73;;;4.20;99.90;;;;;;5073463;28;20422;-68
2022/12/24 06:18:27;;;;;;;5.73;5.17;;;4.20;99.90;;;;;;5073959;28;20397;-71
2022/12/24 06:20:54;;;;;;;6.30;4.93;;;4.10;99.90;;;;;;5074031;28;20524;-71
2022/12/24 06:23:21;;;;;;;5.10;4.50;;;4.10;99.90;;;;;;5073806;28;20849;-68
2022/12/24 06:25:47;;;;;;;12.13;5.50;;;4.10;99.90;;;;;;5073222;28;20419;-69
2022/12/24 06:28:13;;;;;;;8.07;5.50;;;4.20;99.90;;;;;;5073721;28;20401;-69
2022/12/24 06:30:39;;;;;;;5.90;5.20;;;4.20;99.90;;;;;;5073773;28;20399;-69
2022/12/24 06:33:05;;;;;;;15.43;4.67;;;4.20;99.90;;;;;;5073777;28;20390;-69
2022/12/24 06:35:32;;;;;;;7.53;5.10;;;4.20;99.90;;;;;;5072982;28;20460;-69
2022/12/24 06:37:58;;;;;;;5.77;4.63;;;4.20;99.90;;;;;;5073769;28;20159;-69
2022/12/24 06:40:28;;;;;;;5.90;4.93;;;4.20;99.90;;;;;;5073302;28;20924;-69
2022/12/24 06:42:54;;;;;;;7.83;5.43;;;4.20;99.90;;;;;;5073354;28;20407;-68
2022/12/24 06:45:20;;;;;;;7.77;6.40;;;4.20;99.90;;;;;;5072931;28;20513;-69
2022/12/24 06:47:45;;;;;;;6.63;4.70;;;4.20;99.90;;;;;;5073527;28;20412;-69
2022/12/24 06:50:11;;;;;;;8.00;5.00;;;4.00;99.90;;;;;;5073581;28;20439;-72
2022/12/24 06:52:37;;;;;;;5.23;4.20;;;4.00;99.90;;;;;;5055622;28;20178;-69
2022/12/24 06:55:03;;;;;;;7.80;4.70;;;4.10;99.90;;;;;;5054725;28;20242;-68
2022/12/24 06:57:30;;;;;;;7.43;4.97;;;4.10;99.90;;;;;;5073340;28;20172;-71
2022/12/24 06:59:57;;;;;;;6.00;5.50;;;4.10;99.90;;;;;;5072974;28;20408;-71
2022/12/24 07:02:23;;;;;;;9.30;5.23;;;4.20;99.90;;;;;;5073253;28;20478;-69
2022/12/24 07:04:49;;;;;;;5.00;4.50;;;4.10;99.90;;;;;;5072081;28;20424;-69
2022/12/24 07:07:14;;;;;;;5.23;4.53;;;4.10;99.90;;;;;;5073356;28;20404;-72
2022/12/24 07:09:40;;;;;;;7.27;4.63;;;4.10;99.90;;;;;;5073150;28;20757;-69
2022/12/24 07:12:06;;;;;;;6.03;4.87;;;4.10;99.90;;;;;;5073057;28;20170;-71
2022/12/24 07:14:32;;;;;;;7.93;5.20;;;4.20;99.90;;;;;;5072310;28;20456;-70
2022/12/24 07:16:58;;;;;;;18.03;5.67;;;4.20;99.90;;;;;;5072793;28;20223;-72
2022/12/24 07:19:24;;;;;;;5.60;5.03;;;4.20;99.90;;;;;;5055132;28;20168;-72
2022/12/24 07:21:49;;;;;;;7.97;5.60;;;4.20;99.90;;;;;;5073133;28;20224;-72
2022/12/24 07:24:15;;;;;;;5.97;5.30;;;4.20;99.90;;;;;;5072737;28;20429;-69
2022/12/24 07:26:41;;;;;;;7.00;5.27;;;4.20;99.90;;;;;;5072644;28;20640;-70
2022/12/24 07:29:07;;;;;;;6.23;5.60;;;4.20;99.90;;;;;;5071932;28;20478;-69
2022/12/24 07:31:33;;;;;;;6.17;5.53;;;4.20;99.90;;;;;;5073028;28;20173;-69
2022/12/24 07:33:58;;;;;;;7.17;5.73;;;4.10;99.90;;;;;;5054934;28;20236;-71
2022/12/24 07:36:24;;;;;;;7.33;5.67;;;4.10;99.90;;;;;;5072145;28;20399;-72
2022/12/24 07:38:51;;;;;;;9.50;6.97;;;4.10;99.90;;;;;;5072786;28;20173;-69
2022/12/24 07:41:17;;;;;;;16.60;6.97;;;4.10;99.90;;;;;;5072871;28;20405;-69
2022/12/24 07:43:43;;;;;;;11.23;6.40;;;4.10;99.90;;;;;;5054721;28;20443;-72
2022/12/24 07:46:08;;;;;;;12.23;6.47;;;4.10;99.90;;;;;;5072195;28;20421;-72
2022/12/24 07:48:34;;;;;;;12.53;6.13;;;4.10;99.90;;;;;;5073036;28;20171;-70
2022/12/24 07:51:00;;;;;;;10.13;6.20;;;4.10;99.90;;;;;;5072717;28;20414;-70
2022/12/24 07:53:27;;;;;;;9.90;6.60;;;4.10;99.90;;;;;;5072367;28;20464;-72
2022/12/24 07:55:54;;;;;;;11.10;6.80;;;4.10;99.90;;;;;;5072016;28;20801;-69
2022/12/24 07:58:20;;;;;;;18.03;6.23;;;4.10;99.90;;;;;;5072697;28;20399;-72
2022/12/24 08:00:46;;;;;;;14.67;6.50;;;4.10;99.90;;;;;;5072650;28;20385;-72
2022/12/24 08:03:20;;;;;;;13.43;7.70;;;4.10;99.90;;;;;;5072684;28;20800;-69
2022/12/24 08:05:47;;;;;;;9.27;6.77;;;4.20;99.90;;;;;;5071842;28;20206;-72
2022/12/24 08:08:13;;;;;;;7.83;6.23;;;4.20;99.90;;;;;;5054513;28;20412;-70
2022/12/24 08:10:40;;;;;;;9.90;6.13;;;4.20;99.90;;;;;;5072503;28;20451;-73
2022/12/24 08:13:06;;;;;;;8.90;6.80;;;4.30;99.90;;;;;;5072435;28;20451;-72
2022/12/24 08:15:31;;;;;;;9.73;7.33;;;4.30;99.90;;;;;;5072593;28;20456;-73
2022/12/24 08:17:57;;;;;;;13.13;8.23;;;4.30;99.90;;;;;;5076542;28;20915;-73
2022/12/24 08:20:23;;;;;;;11.23;7.50;;;4.20;99.90;;;;;;5076371;28;20171;-69
2022/12/24 08:22:49;;;;;;;7.30;6.60;;;4.30;99.90;;;;;;5076395;28;20480;-73
2022/12/24 08:25:15;;;;;;;11.70;6.87;;;4.20;99.90;;;;;;5057451;28;20192;-70
2022/12/24 08:27:40;;;;;;;11.17;6.83;;;4.20;99.90;;;;;;5075996;28;20155;-70
2022/12/24 08:30:06;;;;;;;9.40;6.43;;;4.20;99.90;;;;;;5058453;28;20265;-74
2022/12/24 08:32:33;;;;;;;9.27;6.47;;;4.20;99.90;;;;;;5076273;28;20162;-74
2022/12/24 08:34:58;;;;;;;10.10;6.57;;;4.30;99.90;;;;;;5075355;28;20882;-74
2022/12/24 08:37:24;;;;;;;10.60;6.93;;;4.30;99.90;;;;;;5075953;28;20511;-70
2022/12/24 08:39:50;;;;;;;7.80;6.23;;;4.40;99.90;;;;;;5076043;28;20170;-70
2022/12/24 08:42:15;;;;;;;11.03;7.30;;;4.40;99.90;;;;;;5075900;28;20189;-69
2022/12/24 08:44:41;;;;;;;10.13;5.83;;;4.40;99.90;;;;;;5075306;28;20190;-70
2022/12/24 08:47:07;;;;;;;8.30;6.83;;;4.40;99.90;;;;;;5057703;28;20183;-69
2022/12/24 08:49:33;;;;;;;8.07;6.60;;;4.40;99.90;;;;;;5075795;28;20638;-73
2022/12/24 08:51:58;;;;;;;11.27;8.23;;;4.40;99.90;;;;;;5075853;28;20201;-73
2022/12/24 08:54:24;;;;;;;7.93;5.87;;;4.50;99.90;;;;;;5057198;28;20202;-70
2022/12/24 08:56:50;;;;;;;10.07;6.67;;;4.50;99.90;;;;;;5075748;28;20168;-70
2022/12/24 08:59:16;;;;;;;12.13;7.93;;;4.50;99.90;;;;;;5075705;28;20207;-70
2022/12/24 09:01:42;;;;;;;8.37;7.30;;;4.40;99.90;;;;;;5075539;28;20429;-70
2022/12/24 09:04:08;;;;;;;11.47;5.80;;;4.40;99.90;;;;;;5075207;28;20650;-73
2022/12/24 09:06:34;;;;;;;11.10;6.27;;;4.40;99.90;;;;;;5074952;28;20180;-73
2022/12/24 09:09:01;;;;;;;7.10;6.40;;;4.40;99.90;;;;;;5075414;28;20401;-73
2022/12/24 09:11:27;;;;;;;9.07;6.83;;;4.40;99.90;;;;;;5057550;28;20418;-71
2022/12/24 09:13:53;;;;;;;16.70;7.27;;;4.40;99.90;;;;;;5075301;28;20913;-70
2022/12/24 09:16:19;;;;;;;7.80;6.43;;;4.50;99.90;;;;;;5074758;28;20167;-67
2022/12/24 09:18:45;;;;;;;8.87;6.20;;;4.40;99.90;;;;;;5075299;28;20435;-69
2022/12/24 09:21:13;;;;;;;6.67;6.07;;;4.40;99.90;;;;;;5075266;28;20172;-66
2022/12/24 09:23:40;;;;;;;8.27;5.80;;;4.50;99.90;;;;;;5075025;28;20527;-70
2022/12/24 09:26:15;;;;;;;6.90;6.10;;;4.50;99.90;;;;;;5073939;28;20410;-69
2022/12/24 09:28:41;;;;;;;7.70;6.57;;;4.50;99.90;;;;;;5075194;28;20398;-73
2022/12/24 09:31:06;;;;;;;17.03;7.80;;;4.50;99.90;;;;;;5075028;28;20414;-70
2022/12/24 09:33:35;;;;;;;11.17;6.77;;;4.60;99.90;;;;;;5074941;28;20430;-74
2022/12/24 09:36:02;;;;;;;8.60;6.03;;;4.60;99.90;;;;;;5056401;28;20566;-72
2022/12/24 09:38:29;;;;;;;9.53;6.60;;;4.60;99.90;;;;;;5074822;28;20444;-69
2022/12/24 09:40:56;;;;;;;10.13;6.57;;;4.60;99.90;;;;;;5074892;28;20479;-69
2022/12/24 09:43:30;;;;;;;12.03;6.07;;;4.70;99.90;;;;;;5074989;28;20906;-74
2022/12/24 09:46:15;;;;;;;11.43;5.80;;;4.70;99.90;;;;;;5055980;28;20437;-73
2022/12/24 09:48:45;;;;;;;9.33;6.00;;;4.70;99.90;;;;;;5056835;28;20419;-74
2022/12/24 09:51:24;;;;;;;13.57;6.70;;;4.80;99.90;;;;;;5074904;28;20393;-70
2022/12/24 09:53:59;;;;;;;12.07;7.23;;;4.80;99.90;;;;;;5074501;28;20457;-70
2022/12/24 09:56:33;;;;;;;11.53;6.00;;;4.80;99.90;;;;;;5074111;28;20910;-74
2022/12/24 09:59:02;;;;;;;6.67;5.40;;;4.80;99.90;;;;;;5074435;28;20796;-70
2022/12/24 10:01:30;;;;;;;9.33;5.50;;;4.80;99.90;;;;;;5056517;28;20772;-74
2022/12/24 10:03:59;;;;;;;7.20;5.53;;;4.80;99.90;;;;;;5073987;28;20997;-71
2022/12/24 10:06:31;;;;;;;9.10;5.80;;;4.80;99.90;;;;;;5073565;28;20421;-74
2022/12/24 10:09:12;;;;;;;6.30;5.27;;;4.80;99.90;;;;;;5074278;28;20920;-74
2022/12/24 10:11:59;;;;;;;5.70;4.80;;;4.80;99.90;;;;;;5074199;28;20470;-74
2022/12/24 10:14:46;;;;;;;12.20;6.30;;;4.80;99.90;;;;;;5055368;28;20467;-70
2022/12/24 10:17:21;;;;;;;7.40;4.93;;;4.80;99.90;;;;;;5056596;28;20419;-70
2022/12/24 10:20:00;;;;;;;6.23;4.63;;;4.80;99.90;;;;;;5074077;28;20417;-75
2022/12/24 10:22:52;;;;;;;6.40;4.37;;;4.80;99.90;;;;;;5074086;28;20396;-74
2022/12/24 10:25:29;;;;;;;5.53;4.67;;;4.80;99.90;;;;;;5041917;28;20435;-69
2022/12/24 10:27:59;;;;;;;7.27;4.60;;;4.80;99.90;;;;;;5074040;28;20439;-73
2022/12/24 10:30:25;;;;;;;6.20;3.80;;;4.80;99.90;;;;;;5056098;28;20409;-69
2022/12/24 10:32:52;;;;;;;5.20;4.70;;;4.80;99.90;;;;;;5073855;28;20401;-69
2022/12/24 10:35:22;;;;;;;10.10;4.77;;;4.80;99.90;;;;;;5055261;28;20465;-69
2022/12/24 10:37:50;;;;;;;5.90;4.97;;;4.80;99.90;;;;;;5073685;28;20451;-69
2022/12/24 10:40:34;;;;;;;9.33;4.30;;;4.80;99.90;;;;;;5055453;28;20417;-69
2022/12/24 10:43:00;;;;;;;5.83;4.53;;;4.90;99.90;;;;;;5073369;28;20431;-69
2022/12/24 10:45:35;;;;;;;6.33;4.73;;;4.90;99.90;;;;;;5072872;28;20438;-69
2022/12/24 10:48:04;;;;;;;5.57;4.67;;;4.90;99.90;;;;;;5073670;28;20404;-71
2022/12/24 10:50:34;;;;;;;8.10;5.70;;;4.90;99.90;;;;;;5073428;28;20872;-69
2022/12/24 10:53:13;;;;;;;6.23;4.80;;;4.90;99.90;;;;;;5073433;28;20405;-69
2022/12/24 10:55:39;;;;;;;8.03;5.03;;;5.00;99.90;;;;;;5072594;28;20958;-69
2022/12/24 10:58:11;;;;;;;9.17;4.77;;;5.00;99.90;;;;;;5073368;28;20550;-70
2022/12/24 11:00:38;;;;;;;6.20;5.60;;;4.90;99.90;;;;;;5073129;28;20400;-69
2022/12/24 11:03:23;;;;;;;6.80;4.77;;;4.90;99.90;;;;;;5073393;28;20392;-74
2022/12/24 11:06:05;;;;;;;5.00;4.20;;;4.90;99.90;;;;;;5072508;28;20444;-69
2022/12/24 11:08:31;;;;;;;6.20;5.00;;;5.00;99.90;;;;;;5073237;28;20393;-74
2022/12/24 11:11:04;;;;;;;9.40;5.40;;;5.00;99.90;;;;;;5073210;28;20413;-75
2022/12/24 11:13:56;;;;;;;6.10;4.70;;;5.10;99.90;;;;;;5052733;28;20437;-71
2022/12/24 11:16:29;;;;;;;12.53;5.10;;;5.10;99.90;;;;;;5071575;28;20555;-70
2022/12/24 11:18:57;;;;;;;3.97;3.67;;;5.10;99.90;;;;;;5070396;28;20946;-73
2022/12/24 11:21:35;;;;;;;8.03;4.67;;;5.10;99.90;;;;;;5054023;28;20926;-70
2022/12/24 11:24:13;;;;;;;4.87;4.37;;;5.10;99.90;;;;;;5052734;28;20447;-72
2022/12/24 11:26:41;;;;;;;7.00;4.70;;;5.10;99.90;;;;;;5034710;28;20403;-75
2022/12/24 11:29:25;;;;;;;7.53;4.50;;;5.20;99.90;;;;;;5035026;28;20502;-70
2022/12/24 11:31:52;;;;;;;7.10;4.40;;;5.20;99.90;;;;;;5065827;28;20424;-72
2022/12/24 11:34:28;;;;;;;7.03;4.13;;;5.20;99.90;;;;;;5069037;28;20507;-72
2022/12/24 11:37:13;;;;;;;5.50;4.43;;;5.20;99.90;;;;;;5072517;28;20398;-71
2022/12/24 11:40:00;;;;;;;6.00;3.87;;;5.10;99.90;;;;;;5052244;28;20984;-66
2022/12/24 11:42:39;;;;;;;6.63;3.90;;;5.20;99.90;;;;;;5038984;28;20857;-69
2022/12/24 11:45:16;;;;;;;5.40;4.90;;;5.20;99.90;;;;;;5049926;28;20452;-71
2022/12/24 11:47:42;;;;;;;10.80;4.70;;;5.20;99.90;;;;;;5052437;28;20496;-73
2022/12/24 11:50:26;;;;;;;4.30;3.90;;;5.20;99.90;;;;;;5068183;28;20507;-73
2022/12/24 11:53:02;;;;;;;4.97;4.20;;;5.20;99.90;;;;;;5076602;28;20174;-73
2022/12/24 11:55:43;;;;;;;6.10;4.17;;;5.20;99.90;;;;;;5055889;28;20467;-70
2022/12/24 11:58:32;;;;;;;5.83;4.27;;;5.30;99.90;;;;;;5076861;28;20385;-70
2022/12/24 12:01:38;;;;;;;5.20;3.70;;;5.30;99.90;;;;;;5058054;28;20585;-70
2022/12/24 12:04:18;;;;;;;4.77;4.37;;;5.30;99.90;;;;;;5073999;28;20453;-70
2022/12/24 12:06:54;;;;;;;4.30;3.90;;;5.30;99.90;;;;;;5058677;28;20435;-70
2022/12/24 12:09:46;;;;;;;5.50;4.33;;;5.30;99.90;;;;;;5076689;28;20406;-70
2022/12/24 12:12:19;;;;;;;9.33;4.10;;;5.30;99.90;;;;;;5072715;28;20462;-69
2022/12/24 12:14:53;;;;;;;6.47;5.67;;;5.30;99.90;;;;;;5074549;28;20526;-70
2022/12/24 12:17:40;;;;;;;4.37;3.97;;;5.30;99.90;;;;;;5075260;28;20525;-70
2022/12/24 12:20:46;;;;;;;5.10;4.23;;;5.30;99.90;;;;;;5073972;28;20429;-74
2022/12/24 12:23:41;;;;;;;4.93;4.50;;;5.30;99.90;;;;;;5041898;28;20436;-70
2022/12/24 12:26:27;;;;;;;8.00;4.70;;;5.30;99.90;;;;;;5057378;28;20436;-69
2022/12/24 12:29:17;;;;;;;4.90;4.40;;;5.30;99.90;;;;;;5055861;28;20542;-70
2022/12/24 12:31:58;;;;;;;5.23;3.90;;;5.30;99.90;;;;;;5068945;28;20426;-69
2022/12/24 12:34:39;;;;;;;4.23;3.77;;;5.30;99.90;;;;;;5048345;28;20466;-65
2022/12/24 12:37:10;;;;;;;4.60;4.30;;;5.30;99.90;;;;;;5075982;28;20455;-68
2022/12/24 12:39:36;;;;;;;6.77;5.50;;;5.30;99.90;;;;;;5075846;28;20494;-70
2022/12/24 12:42:07;;;;;;;5.17;4.70;;;5.20;99.90;;;;;;5058065;28;20403;-67
2022/12/24 12:44:40;;;;;;;7.07;4.70;;;5.20;99.90;;;;;;5073928;28;20445;-66
2022/12/24 12:47:09;;;;;;;5.93;5.13;;;5.20;99.90;;;;;;5053374;28;20967;-66
2022/12/24 12:50:13;;;;;;;5.70;4.67;;;5.20;99.90;;;;;;5058501;28;20525;-65
2022/12/24 12:53:09;;;;;;;8.27;4.80;;;5.20;99.90;;;;;;5075939;28;20391;-69
2022/12/24 12:55:44;;;;;;;6.60;4.90;;;5.20;99.90;;;;;;5073456;28;20891;-68
2022/12/24 12:58:22;;;;;;;9.90;5.87;;;5.20;99.90;;;;;;5075656;28;20443;-73
2022/12/24 13:00:51;;;;;;;7.10;4.87;;;5.20;99.90;;;;;;5073178;28;20455;-73
2022/12/24 13:03:25;;;;;;;5.07;4.63;;;5.20;99.90;;;;;;5075262;28;20409;-71
2022/12/24 13:06:07;;;;;;;5.67;5.10;;;5.20;99.90;;;;;;5074896;28;20449;-69
2022/12/24 13:09:00;;;;;;;7.67;4.60;;;5.20;99.90;;;;;;5051091;28;20428;-69
2022/12/24 13:11:35;;;;;;;6.90;5.30;;;5.30;99.90;;;;;;5075419;28;20490;-70
2022/12/24 13:14:22;;;;;;;7.23;6.30;;;5.30;99.90;;;;;;5075258;28;20423;-73
2022/12/24 13:17:04;;;;;;;7.93;5.83;;;5.40;99.90;;;;;;5075418;28;20836;-73
2022/12/24 13:19:54;;;;;;;9.93;6.03;;;5.40;99.90;;;;;;5050149;28;20780;-72
2022/12/24 13:22:21;;;;;;;6.73;5.97;;;5.40;99.90;;;;;;5057252;28;20436;-70